createdAt,value
2022-10-12T00:02:38.081Z,76.71
2022-10-12T00:05:43.980Z,76.74
2022-10-12T00:08:51.625Z,76.75
2022-10-12T00:11:57.490Z,76.66
2022-10-12T00:15:03.740Z,76.65
2022-10-12T00:18:10.177Z,76.76
2022-10-12T00:21:18.252Z,76.67
2022-10-12T00:24:24.160Z,76.61
2022-10-12T00:27:30.299Z,76.83
2022-10-12T00:30:41.020Z,76.92
2022-10-12T00:33:48.204Z,76.83
2022-10-12T00:36:56.402Z,76.75
2022-10-12T00:40:02.553Z,76.84
2022-10-12T00:43:29.649Z,76.86
2022-10-12T00:46:42.662Z,76.89
2022-10-12T00:49:51.684Z,77.05
2022-10-12T00:53:03.296Z,76.96
2022-10-12T00:56:14.462Z,77.01
2022-10-12T00:59:23.787Z,77.04
2022-10-12T01:02:33.474Z,77.01
2022-10-12T01:05:42.755Z,77.16
2022-10-12T01:08:49.880Z,77.30
2022-10-12T01:11:57.857Z,77.36
2022-10-12T01:15:04.334Z,77.12
2022-10-12T01:18:16.063Z,77.22
2022-10-12T01:21:23.895Z,77.21
2022-10-12T01:24:52.026Z,77.33
2022-10-12T01:28:03.432Z,77.37
2022-10-12T01:31:15.818Z,77.48
2022-10-12T01:34:29.697Z,77.49
2022-10-12T01:37:47.910Z,77.44
2022-10-12T01:41:03.348Z,77.28
2022-10-12T01:44:09.498Z,77.27
2022-10-12T01:47:16.993Z,77.23
2022-10-12T01:50:28.241Z,77.09
2022-10-12T01:53:41.807Z,77.34
2022-10-12T01:56:55.539Z,77.51
2022-10-12T02:00:08.280Z,77.46
2022-10-12T02:03:22.184Z,77.42
2022-10-12T02:06:33.912Z,77.55
2022-10-12T02:09:41.346Z,77.43
2022-10-12T02:12:50.937Z,77.43
2022-10-12T02:16:00.247Z,77.34
2022-10-12T02:19:10.913Z,77.47
2022-10-12T02:22:18.992Z,77.57
2022-10-12T02:25:27.744Z,77.58
2022-10-12T02:28:37.514Z,77.66
2022-10-12T02:31:53.730Z,77.70
2022-10-12T02:35:02.942Z,77.66
2022-10-12T02:38:15.861Z,77.63
2022-10-12T02:41:28.062Z,77.55
2022-10-12T02:44:38.519Z,77.62
2022-10-12T02:47:47.261Z,77.64
2022-10-12T02:50:57.118Z,77.64
2022-10-12T02:54:04.389Z,77.77
2022-10-12T02:57:11.162Z,77.65
2022-10-12T03:00:19.517Z,77.73
2022-10-12T03:03:25.702Z,77.73
2022-10-12T03:06:31.746Z,77.74
2022-10-12T03:09:37.816Z,77.70
2022-10-12T03:12:49.106Z,77.56
2022-10-12T03:16:02.071Z,77.58
2022-10-12T03:19:08.275Z,77.54
2022-10-12T03:22:14.316Z,77.37
2022-10-12T03:25:20.456Z,77.34
2022-10-12T03:28:26.666Z,77.31
2022-10-12T03:31:31.323Z,77.46
2022-10-12T03:34:37.381Z,77.44
2022-10-12T03:37:43.535Z,77.52
2022-10-12T03:40:49.980Z,77.58
2022-10-12T03:43:56.015Z,77.67
2022-10-12T03:47:02.071Z,77.62
2022-10-12T03:50:09.554Z,77.67
2022-10-12T03:53:15.724Z,77.39
2022-10-12T03:56:21.759Z,77.28
2022-10-12T03:59:28.636Z,77.41
2022-10-12T04:02:34.704Z,77.54
2022-10-12T04:05:41.055Z,77.49
2022-10-12T04:08:49.929Z,77.49
2022-10-12T04:11:57.088Z,77.48
2022-10-12T04:15:03.448Z,77.57
2022-10-12T04:18:08.045Z,77.74
2022-10-12T04:21:16.479Z,77.70
2022-10-12T04:24:22.607Z,77.39
2022-10-12T04:27:28.800Z,77.23
2022-10-12T04:30:34.891Z,77.31
2022-10-12T04:33:41.161Z,77.55
2022-10-12T04:36:47.275Z,77.56
2022-10-12T04:39:53.380Z,77.48
2022-10-12T04:42:59.435Z,77.35
2022-10-12T04:46:05.645Z,77.44
2022-10-12T04:49:11.780Z,77.61
2022-10-12T04:52:17.750Z,77.54
2022-10-12T04:55:24.062Z,77.47
2022-10-12T04:58:29.006Z,77.47
2022-10-12T05:01:35.165Z,77.40
2022-10-12T05:04:41.365Z,77.46
2022-10-12T05:07:47.656Z,77.57
2022-10-12T05:10:52.281Z,77.58
2022-10-12T05:13:58.493Z,77.56
2022-10-12T05:17:04.674Z,77.49
2022-10-12T05:20:13.498Z,77.55
2022-10-12T05:23:19.571Z,77.54
2022-10-12T05:26:25.914Z,77.53
2022-10-12T05:29:30.400Z,77.53
2022-10-12T05:32:36.833Z,77.65
2022-10-12T05:35:47.481Z,77.62
2022-10-12T05:38:55.067Z,77.73
2022-10-12T05:42:01.179Z,77.76
2022-10-12T05:45:08.947Z,77.78
2022-10-12T05:48:15.311Z,77.88
2022-10-12T05:51:19.886Z,77.89
2022-10-12T05:54:26.153Z,77.80
2022-10-12T05:57:32.420Z,77.88
2022-10-12T06:00:39.051Z,77.87
2022-10-12T06:03:45.202Z,78.00
2022-10-12T06:06:51.365Z,77.94
2022-10-12T06:09:57.461Z,77.91
2022-10-12T06:13:03.850Z,78.07
2022-10-12T06:16:10.600Z,78.27
2022-10-12T06:19:16.780Z,78.35
2022-10-12T06:22:22.823Z,78.34
2022-10-12T06:25:29.224Z,78.26
2022-10-12T06:28:35.573Z,78.40
2022-10-12T06:31:40.219Z,78.18
2022-10-12T06:34:46.959Z,78.37
2022-10-12T06:37:54.016Z,78.30
2022-10-12T06:41:00.720Z,78.38
2022-10-12T06:44:07.136Z,78.38
2022-10-12T06:47:13.315Z,78.57
2022-10-12T06:50:19.642Z,78.59
2022-10-12T06:53:25.684Z,78.64
2022-10-12T06:56:32.263Z,78.75
2022-10-12T06:59:38.384Z,78.75
2022-10-12T07:02:44.928Z,79.04
2022-10-12T07:05:51.020Z,79.02
2022-10-12T07:08:58.050Z,78.83
2022-10-12T07:12:04.193Z,78.80
2022-10-12T07:15:11.928Z,78.75
2022-10-12T07:18:17.964Z,78.77
2022-10-12T07:21:24.062Z,78.86
2022-10-12T07:24:36.529Z,78.89
2022-10-12T07:27:42.559Z,79.01
2022-10-12T07:30:48.870Z,78.98
2022-10-12T07:33:53.352Z,79.02
2022-10-12T07:37:00.130Z,79.09
2022-10-12T07:40:07.495Z,79.10
2022-10-12T07:43:16.063Z,79.32
2022-10-12T07:46:22.691Z,79.43
2022-10-12T07:49:28.953Z,79.33
2022-10-12T07:52:35.808Z,79.35
2022-10-12T07:55:42.052Z,79.54
2022-10-12T07:58:51.357Z,79.61
2022-10-12T08:01:57.570Z,79.53
2022-10-12T08:05:03.764Z,79.73
2022-10-12T08:08:10.013Z,79.75
2022-10-12T08:11:14.782Z,79.81
2022-10-12T08:14:21.011Z,79.97
2022-10-12T08:17:27.538Z,79.88
2022-10-12T08:20:33.783Z,80.17
2022-10-12T08:23:40.239Z,80.17
2022-10-12T08:26:46.318Z,80.33
2022-10-12T08:29:52.450Z,80.37
2022-10-12T08:32:58.597Z,80.28
2022-10-12T08:36:06.691Z,80.45
2022-10-12T08:39:12.840Z,80.51
2022-10-12T08:42:35.367Z,80.36
2022-10-12T08:45:49.192Z,80.31
2022-10-12T08:49:02.977Z,80.21
2022-10-12T08:52:22.818Z,80.31
2022-10-12T08:55:38.094Z,80.53
2022-10-12T08:58:45.636Z,80.36
2022-10-12T09:02:04.228Z,80.41
2022-10-12T09:05:16.275Z,80.53
2022-10-12T09:08:33.591Z,80.59
2022-10-12T09:11:53.167Z,80.43
2022-10-12T09:15:03.668Z,80.11
2022-10-12T09:18:20.330Z,79.72
2022-10-12T09:21:28.540Z,79.35
2022-10-12T09:24:39.398Z,79.26
2022-10-12T09:27:48.286Z,78.96
2022-10-12T09:31:17.984Z,78.64
2022-10-12T09:34:24.843Z,78.48
2022-10-12T09:37:33.704Z,78.47
2022-10-12T09:40:40.478Z,78.29
2022-10-12T09:43:46.905Z,77.98
2022-10-12T09:46:57.516Z,77.95
2022-10-12T09:50:05.750Z,77.76
2022-10-12T09:53:28.857Z,77.55
2022-10-12T09:56:41.800Z,77.58
2022-10-12T09:59:48.486Z,77.20
2022-10-12T10:02:55.712Z,76.89
2022-10-12T10:06:07.504Z,77.11
2022-10-12T10:09:33.587Z,76.96
2022-10-12T10:12:44.231Z,76.80
2022-10-12T10:15:52.086Z,76.59
2022-10-12T10:19:03.148Z,76.25
2022-10-12T10:22:09.379Z,76.34
2022-10-12T10:25:21.071Z,76.40
2022-10-12T10:28:31.841Z,75.94
2022-10-12T10:31:38.078Z,75.91
2022-10-12T10:34:43.820Z,75.81
2022-10-12T10:37:50.679Z,75.59
2022-10-12T10:40:58.685Z,75.71
2022-10-12T10:44:06.348Z,75.34
2022-10-12T10:47:14.659Z,75.12
2022-10-12T10:50:31.897Z,74.70
2022-10-12T10:53:49.832Z,74.27
2022-10-12T10:57:03.383Z,73.79
2022-10-12T11:03:52.386Z,72.81
2022-10-12T11:07:03.027Z,72.71
2022-10-12T11:10:22.015Z,72.76
2022-10-12T11:13:34.005Z,72.34
2022-10-12T11:16:45.097Z,71.68
2022-10-12T11:19:57.064Z,71.57
2022-10-12T11:23:10.810Z,71.19
2022-10-12T11:26:24.154Z,71.16
2022-10-12T11:29:30.823Z,70.78
2022-10-12T11:32:41.890Z,70.72
2022-10-12T11:35:49.015Z,70.33
2022-10-12T11:39:05.895Z,69.71
2022-10-12T11:42:22.147Z,69.26
2022-10-12T11:45:31.838Z,69.09
2022-10-12T11:48:43.431Z,68.79
2022-10-12T11:51:52.627Z,68.56
2022-10-12T11:55:09.508Z,68.08
2022-10-12T11:58:31.553Z,67.79
2022-10-12T12:02:04.791Z,67.46
2022-10-12T12:05:16.685Z,67.21
2022-10-12T12:09:19.212Z,67.03
2022-10-12T12:12:27.696Z,66.69
2022-10-12T12:15:34.184Z,66.64
2022-10-12T12:19:13.327Z,66.30
2022-10-12T12:22:49.156Z,66.03
2022-10-12T12:26:16.803Z,65.87
2022-10-12T12:29:30.033Z,65.72
2022-10-12T12:32:49.557Z,65.29
2022-10-12T12:35:58.552Z,65.28
2022-10-12T12:39:06.090Z,64.93
2022-10-12T12:42:12.761Z,64.83
2022-10-12T12:45:54.476Z,64.82
2022-10-12T12:49:26.839Z,64.25
2022-10-12T12:52:35.361Z,64.23
2022-10-12T12:56:04.561Z,63.95
2022-10-12T12:59:35.108Z,63.74
2022-10-12T13:03:04.650Z,63.70
2022-10-12T13:06:40.263Z,63.35
2022-10-12T13:10:08.951Z,63.03
2022-10-12T13:13:44.308Z,62.95
2022-10-12T13:17:31.126Z,62.76
2022-10-12T13:20:28.190Z,62.86
2022-10-12T13:23:35.053Z,62.75
2022-10-12T13:26:42.324Z,62.58
2022-10-12T13:29:55.014Z,62.71
2022-10-12T13:33:07.778Z,62.59
2022-10-12T13:36:19.511Z,62.25
2022-10-12T13:39:25.739Z,62.10
2022-10-12T13:42:36.038Z,62.07
2022-10-12T13:45:48.198Z,61.96
2022-10-12T13:48:59.795Z,61.80
2022-10-12T13:52:31.821Z,61.72
2022-10-12T13:55:38.716Z,61.54
2022-10-12T13:58:45.113Z,61.54
2022-10-12T14:02:00.902Z,61.34
2022-10-12T14:05:08.434Z,61.17
2022-10-12T14:08:20.729Z,61.11
2022-10-12T14:11:27.915Z,60.85
2022-10-12T14:14:37.722Z,60.89
2022-10-12T14:17:47.798Z,60.71
2022-10-12T14:21:05.735Z,60.69
2022-10-12T14:24:12.741Z,60.57
2022-10-12T14:27:26.116Z,60.39
2022-10-12T14:30:34.435Z,60.42
2022-10-12T14:33:40.582Z,60.39
2022-10-12T14:36:45.259Z,60.34
2022-10-12T14:39:59.519Z,60.32
2022-10-12T14:43:09.582Z,60.30
2022-10-12T14:46:15.716Z,60.20
2022-10-12T14:49:22.306Z,60.13
2022-10-12T14:52:35.160Z,60.09
2022-10-12T14:55:42.700Z,60.09
2022-10-12T14:58:49.607Z,60.13
2022-10-12T15:01:55.841Z,60.06
2022-10-12T15:05:02.537Z,60.08
2022-10-12T15:08:09.387Z,59.93
2022-10-12T15:11:16.963Z,59.97
2022-10-12T15:14:23.044Z,59.79
2022-10-12T15:17:27.535Z,59.90
2022-10-12T15:20:34.251Z,59.94
2022-10-12T15:23:40.498Z,59.88
2022-10-12T15:26:46.833Z,59.88
2022-10-12T15:29:53.393Z,59.89
2022-10-12T15:32:59.642Z,59.88
2022-10-12T15:36:05.754Z,60.00
2022-10-12T15:39:10.334Z,59.93
2022-10-12T15:42:16.418Z,60.03
2022-10-12T15:45:22.691Z,60.28
2022-10-12T15:48:29.189Z,60.43
2022-10-12T15:51:39.202Z,60.61
2022-10-12T15:54:48.771Z,60.77
2022-10-12T15:57:56.215Z,60.78
2022-10-12T16:01:02.386Z,60.94
2022-10-12T16:04:08.055Z,60.96
2022-10-12T16:07:15.876Z,61.04
2022-10-12T16:10:24.492Z,61.16
2022-10-12T16:13:30.574Z,61.23
2022-10-12T16:16:36.706Z,61.47
2022-10-12T16:19:42.856Z,61.70
2022-10-12T16:22:51.147Z,61.84
2022-10-12T16:25:57.655Z,62.03
2022-10-12T16:29:03.803Z,62.06
2022-10-12T16:32:08.257Z,62.20
2022-10-12T16:35:15.328Z,62.38
2022-10-12T16:38:21.646Z,62.55
2022-10-12T16:41:30.412Z,62.61
2022-10-12T16:44:40.073Z,62.69
2022-10-12T16:47:44.693Z,62.78
2022-10-12T16:50:50.879Z,62.85
2022-10-12T16:53:55.386Z,63.01
2022-10-12T16:57:01.923Z,63.20
2022-10-12T17:00:10.681Z,63.24
2022-10-12T17:03:16.958Z,63.50
2022-10-12T17:06:23.108Z,63.49
2022-10-12T17:09:27.955Z,63.54
2022-10-12T17:12:35.462Z,63.65
2022-10-12T17:15:44.071Z,63.93
2022-10-12T17:18:50.206Z,63.90
2022-10-12T17:21:59.665Z,64.14
2022-10-12T17:25:06.385Z,64.20
2022-10-12T17:28:12.467Z,64.21
2022-10-12T17:31:18.886Z,64.33
2022-10-12T17:34:26.676Z,64.55
2022-10-12T17:37:32.837Z,64.50
2022-10-12T17:40:39.825Z,64.65
2022-10-12T17:43:46.475Z,64.74
2022-10-12T17:46:52.680Z,64.99
2022-10-12T17:49:57.228Z,64.91
2022-10-12T17:53:03.317Z,64.85
2022-10-12T17:56:14.043Z,65.11
2022-10-12T17:59:21.215Z,65.04
2022-10-12T18:02:27.577Z,65.29
2022-10-12T18:05:34.867Z,65.38
2022-10-12T18:08:41.255Z,65.45
2022-10-12T18:11:47.474Z,65.59
2022-10-12T18:14:51.925Z,65.76
2022-10-12T18:17:58.088Z,65.74
2022-10-12T18:21:08.246Z,65.80
2022-10-12T18:24:17.662Z,66.01
2022-10-12T18:27:23.926Z,66.13
2022-10-12T18:30:30.054Z,65.91
2022-10-12T18:33:36.721Z,65.91
2022-10-12T18:36:42.999Z,66.03
2022-10-12T18:39:47.503Z,66.28
2022-10-12T18:42:53.879Z,66.32
2022-10-12T18:45:59.914Z,66.36
2022-10-12T18:49:08.534Z,66.37
2022-10-12T18:52:14.557Z,66.45
2022-10-12T18:55:20.861Z,66.52
2022-10-12T18:58:25.398Z,66.69
2022-10-12T19:01:33.187Z,66.72
2022-10-12T19:04:39.349Z,66.95
2022-10-12T19:07:45.467Z,66.86
2022-10-12T19:10:51.566Z,66.81
2022-10-12T19:14:00.211Z,66.97
2022-10-12T19:17:06.322Z,67.03
2022-10-12T19:20:13.792Z,67.12
2022-10-12T19:23:19.901Z,67.20
2022-10-12T19:26:28.545Z,67.34
2022-10-12T19:29:34.678Z,67.24
2022-10-12T19:32:41.484Z,67.28
2022-10-12T19:35:47.619Z,67.53
2022-10-12T19:38:55.972Z,67.34
2022-10-12T19:42:02.117Z,67.44
2022-10-12T19:45:09.742Z,67.40
2022-10-12T19:48:15.971Z,67.59
2022-10-12T19:51:24.001Z,67.53
2022-10-12T19:54:34.076Z,67.57
2022-10-12T19:57:43.202Z,67.58
2022-10-12T20:00:49.489Z,67.70
2022-10-12T20:03:53.998Z,67.79
2022-10-12T20:07:00.142Z,67.86
2022-10-12T20:10:07.465Z,67.88
2022-10-12T20:13:13.594Z,67.94
2022-10-12T20:16:21.194Z,68.02
2022-10-12T20:19:27.503Z,68.11
2022-10-12T20:22:32.005Z,68.08
2022-10-12T20:25:43.177Z,68.19
2022-10-12T20:28:50.190Z,68.18
2022-10-12T20:31:56.391Z,68.22
2022-10-12T20:35:02.444Z,68.34
2022-10-12T20:38:08.507Z,68.26
2022-10-12T20:41:17.292Z,68.17
2022-10-12T20:44:23.607Z,68.24
2022-10-12T20:47:28.798Z,68.18
2022-10-12T20:50:35.364Z,68.29
2022-10-12T20:53:42.171Z,68.52
2022-10-12T20:56:52.086Z,68.45
2022-10-12T20:59:58.306Z,68.58
2022-10-12T21:03:04.461Z,68.68
2022-10-12T21:06:12.913Z,68.88
2022-10-12T21:09:18.895Z,68.89
2022-10-12T21:12:25.095Z,68.70
2022-10-12T21:15:31.311Z,68.88
2022-10-12T21:18:38.440Z,69.05
2022-10-12T21:21:46.720Z,69.05
2022-10-12T21:24:53.379Z,69.10
2022-10-12T21:27:59.628Z,68.94
2022-10-12T21:31:05.936Z,68.91
2022-10-12T21:34:11.411Z,69.06
2022-10-12T21:37:17.638Z,69.04
2022-10-12T21:40:24.475Z,69.05
2022-10-12T21:43:30.586Z,69.02
2022-10-12T21:46:37.584Z,68.98
2022-10-12T21:49:43.698Z,69.05
2022-10-12T21:52:50.230Z,69.15
2022-10-12T21:55:56.676Z,69.19
2022-10-12T21:59:01.959Z,69.23
2022-10-12T22:02:08.044Z,69.34
2022-10-12T22:05:14.108Z,69.29
2022-10-12T22:08:20.229Z,69.38
2022-10-12T22:11:27.379Z,69.49
2022-10-12T22:14:33.611Z,69.45
2022-10-12T22:17:39.762Z,69.48
2022-10-12T22:20:45.776Z,69.41
2022-10-12T22:23:51.896Z,69.50
2022-10-12T22:26:58.001Z,69.69
2022-10-12T22:30:04.610Z,69.72
2022-10-12T22:33:10.729Z,69.56
2022-10-12T22:36:18.019Z,69.57
2022-10-12T22:39:24.235Z,69.66
2022-10-12T22:42:30.380Z,69.73
2022-10-12T22:45:36.461Z,69.80
2022-10-12T22:48:42.984Z,69.89
2022-10-12T22:51:49.208Z,69.92
2022-10-12T22:54:55.212Z,69.87
2022-10-12T22:58:01.328Z,70.01
2022-10-12T23:01:09.165Z,70.11
2022-10-12T23:04:15.506Z,70.19
2022-10-12T23:07:19.986Z,70.08
2022-10-12T23:10:26.655Z,70.09
2022-10-12T23:13:32.847Z,70.08
2022-10-12T23:16:38.923Z,70.12
2022-10-12T23:19:45.082Z,70.08
2022-10-12T23:22:51.164Z,70.16
2022-10-12T23:26:03.499Z,70.02
2022-10-12T23:29:09.642Z,70.15
2022-10-12T23:32:16.683Z,70.41
2022-10-12T23:35:22.995Z,70.32
2022-10-12T23:38:31.768Z,70.29
2022-10-12T23:41:37.844Z,70.28
2022-10-12T23:44:43.969Z,70.36
2022-10-12T23:47:50.071Z,70.24
2022-10-12T23:50:56.703Z,70.30
2022-10-12T23:54:03.142Z,70.30
2022-10-12T23:57:22.548Z,70.36
